Time;durP1;ratioP1;P1;durP2;ratioP2;P2;SDS_P1;SDS_P2;PMS_P1;PMS_P2;Temp;Humidity;BMP_temperature;BMP_pressure;BME280_temperature;BME280_humidity;BME280_pressure;Samples;Min_cycle;Max_cycle;Signal;HPM_P1;HPM_P2
2023/01/24 00:01:21;;;;;;;12.45;5.22;;;2.90;99.90;;;;;;5034212;28;20492;-66
2023/01/24 00:03:47;;;;;;;9.73;5.13;;;3.00;99.90;;;;;;5016150;28;20413;-66
2023/01/24 00:06:12;;;;;;;11.20;5.68;;;3.00;99.90;;;;;;5033986;28;20036;-66
2023/01/24 00:08:38;;;;;;;11.68;4.90;;;3.00;99.90;;;;;;5016069;28;20084;-66
2023/01/24 00:11:06;;;;;;;12.63;5.68;;;3.00;99.90;;;;;;5033775;28;20041;-66
2023/01/24 00:13:33;;;;;;;11.25;5.03;;;2.90;99.90;;;;;;5033964;28;20037;-66
2023/01/24 00:16:13;;;;;;;12.07;5.63;;;2.90;99.90;;;;;;5033908;28;20037;-66
2023/01/24 00:18:39;;;;;;;12.07;5.57;;;2.90;99.90;;;;;;5033859;28;20052;-66
2023/01/24 00:21:12;;;;;;;10.07;5.45;;;2.90;99.90;;;;;;5033770;28;20038;-66
2023/01/24 00:23:40;;;;;;;13.15;5.30;;;2.90;99.90;;;;;;5033794;28;20045;-66
2023/01/24 00:26:05;;;;;;;12.63;5.53;;;2.90;99.90;;;;;;5033412;28;20041;-66
2023/01/24 00:28:32;;;;;;;8.93;4.90;;;2.90;99.90;;;;;;5015696;28;20036;-66
2023/01/24 00:30:57;;;;;;;12.55;5.30;;;3.00;99.90;;;;;;5033656;28;20116;-66
2023/01/24 00:33:23;;;;;;;11.10;4.80;;;2.90;99.90;;;;;;5033553;28;20082;-66
2023/01/24 00:35:52;;;;;;;13.48;5.43;;;2.90;99.90;;;;;;5033239;28;20168;-66
2023/01/24 00:38:18;;;;;;;11.68;5.32;;;2.90;99.90;;;;;;5033387;28;20095;-66
2023/01/24 00:40:44;;;;;;;12.73;5.80;;;2.90;99.90;;;;;;5015610;28;20060;-66
2023/01/24 00:43:10;;;;;;;10.55;5.40;;;2.90;99.90;;;;;;5033371;28;20121;-66
2023/01/24 00:45:36;;;;;;;14.73;5.85;;;2.90;99.90;;;;;;5015370;28;20511;-64
2023/01/24 00:48:03;;;;;;;10.77;5.57;;;2.90;99.90;;;;;;5032978;28;20040;-66
2023/01/24 00:50:29;;;;;;;11.70;5.35;;;2.90;99.90;;;;;;5033255;28;20477;-65
2023/01/24 00:52:54;;;;;;;11.25;5.00;;;2.90;99.90;;;;;;5015262;28;20124;-66
2023/01/24 00:55:20;;;;;;;14.57;5.38;;;2.90;99.90;;;;;;4998946;28;20467;-66
2023/01/24 00:57:46;;;;;;;13.25;5.88;;;2.90;99.90;;;;;;5033168;28;20091;-66
2023/01/24 01:00:12;;;;;;;12.68;5.45;;;2.90;99.90;;;;;;5033224;28;20067;-66
2023/01/24 01:02:38;;;;;;;11.15;5.18;;;2.90;99.90;;;;;;5033177;28;20432;-66
2023/01/24 01:05:04;;;;;;;13.55;5.75;;;2.90;99.90;;;;;;5015038;28;20049;-66
2023/01/24 01:07:29;;;;;;;13.65;6.45;;;2.90;99.90;;;;;;5033039;28;20041;-65
2023/01/24 01:09:55;;;;;;;13.15;6.80;;;2.90;99.90;;;;;;5032667;28;20080;-65
2023/01/24 01:12:21;;;;;;;12.38;4.80;;;2.90;99.90;;;;;;5032960;28;20048;-66
2023/01/24 01:14:46;;;;;;;13.80;6.00;;;2.90;99.90;;;;;;5015123;28;20049;-66
2023/01/24 01:17:12;;;;;;;10.75;5.95;;;2.90;99.90;;;;;;5032850;28;20055;-66
2023/01/24 01:19:37;;;;;;;15.77;6.78;;;2.90;99.90;;;;;;5032624;28;20050;-66
2023/01/24 01:22:03;;;;;;;11.10;5.22;;;2.90;99.90;;;;;;5015271;28;20045;-66
2023/01/24 01:24:28;;;;;;;14.02;6.63;;;2.90;99.90;;;;;;5014929;28;20124;-65
2023/01/24 01:26:54;;;;;;;11.90;6.00;;;2.90;99.90;;;;;;5032449;28;20037;-65
2023/01/24 01:29:20;;;;;;;17.95;6.18;;;2.90;99.90;;;;;;5032514;28;20076;-65
2023/01/24 01:31:45;;;;;;;12.30;5.93;;;2.90;99.90;;;;;;5032784;28;20037;-66
2023/01/24 01:34:11;;;;;;;11.43;5.40;;;2.80;99.90;;;;;;5032826;28;20040;-66
2023/01/24 01:36:36;;;;;;;10.57;5.50;;;2.90;99.90;;;;;;5032825;28;20477;-66
2023/01/24 01:39:02;;;;;;;11.05;5.50;;;2.90;99.90;;;;;;5032801;28;20046;-64
2023/01/24 01:41:28;;;;;;;15.50;5.63;;;2.90;99.90;;;;;;5032736;28;20080;-66
2023/01/24 01:46:43;;;;;;;13.10;6.60;;;2.90;99.90;;;;;;5032336;28;20049;-66
2023/01/24 01:49:19;;;;;;;9.82;5.05;;;2.90;99.90;;;;;;5017551;28;20045;-66
2023/01/24 01:51:49;;;;;;;13.90;5.75;;;2.90;99.90;;;;;;5018621;28;20381;-64
2023/01/24 01:54:19;;;;;;;11.82;5.88;;;2.90;99.90;;;;;;5036519;28;20120;-66
2023/01/24 01:56:51;;;;;;;13.20;5.88;;;2.90;99.90;;;;;;5036447;28;20041;-64
2023/01/24 01:59:22;;;;;;;17.85;6.38;;;2.90;99.90;;;;;;5036502;28;20041;-66
2023/01/24 02:01:49;;;;;;;13.50;5.55;;;2.90;99.90;;;;;;5036467;28;20049;-65
2023/01/24 02:04:21;;;;;;;14.10;7.28;;;2.90;99.90;;;;;;5036492;28;20040;-66
2023/01/24 02:07:02;;;;;;;13.85;6.28;;;2.90;99.90;;;;;;5036255;28;20048;-66
2023/01/24 02:09:35;;;;;;;14.13;5.97;;;2.80;99.90;;;;;;5035957;28;20065;-66
2023/01/24 02:12:05;;;;;;;12.63;6.07;;;2.90;99.90;;;;;;5018234;28;20167;-66
2023/01/24 02:17:18;;;;;;;14.35;6.00;;;2.90;99.90;;;;;;5035940;28;20046;-66
2023/01/24 02:20:21;;;;;;;18.75;5.60;;;2.90;99.90;;;;;;5036202;28;20041;-66
2023/01/24 02:23:06;;;;;;;13.43;5.32;;;2.90;99.90;;;;;;5018331;28;20567;-66
2023/01/24 02:25:57;;;;;;;11.38;5.30;;;2.50;99.90;;;;;;5017819;28;20049;-65
2023/01/24 02:28:22;;;;;;;10.20;5.15;;;2.90;99.90;;;;;;5018007;28;20408;-66
2023/01/24 02:30:48;;;;;;;9.85;4.93;;;2.90;99.90;;;;;;5035915;28;20030;-65
2023/01/24 02:33:16;;;;;;;12.73;5.03;;;2.90;99.90;;;;;;5017841;28;20576;-66
2023/01/24 02:35:43;;;;;;;12.98;4.95;;;2.90;99.90;;;;;;5035786;28;20439;-66
2023/01/24 02:38:26;;;;;;;11.38;5.07;;;2.90;99.90;;;;;;5036019;28;20500;-67
2023/01/24 02:40:56;;;;;;;10.23;4.90;;;2.90;99.90;;;;;;5017989;28;20420;-66
2023/01/24 02:43:25;;;;;;;11.17;5.47;;;2.90;99.90;;;;;;5035663;28;20045;-66
2023/01/24 02:45:51;;;;;;;13.70;5.25;;;2.90;99.90;;;;;;5035156;28;20045;-66
2023/01/24 02:48:16;;;;;;;14.05;5.78;;;2.90;99.90;;;;;;5035577;28;20079;-66
2023/01/24 02:53:29;;;;;;;13.77;5.55;;;2.90;99.90;;;;;;5035501;28;20041;-66
2023/01/24 02:58:44;;;;;;;14.20;6.00;;;2.90;99.90;;;;;;5035198;28;20068;-66
2023/01/24 03:01:10;;;;;;;8.30;4.38;;;2.90;99.90;;;;;;5035339;28;20052;-66
2023/01/24 03:03:36;;;;;;;11.30;4.60;;;2.90;99.90;;;;;;5035045;28;20040;-65
2023/01/24 03:06:02;;;;;;;8.45;4.82;;;2.90;99.90;;;;;;5035060;28;20461;-66
2023/01/24 03:08:31;;;;;;;10.27;5.47;;;3.00;99.90;;;;;;5034967;28;20070;-65
2023/01/24 03:10:57;;;;;;;9.52;4.53;;;3.00;99.90;;;;;;5035089;28;20140;-66
2023/01/24 03:35:18;;;;;;;14.63;6.28;;;2.90;99.90;;;;;;5016664;28;20050;-66
2023/01/24 03:40:28;;;;;;;10.05;4.57;;;2.90;99.90;;;;;;5034663;28;20117;-66
2023/01/24 03:42:54;;;;;;;11.30;5.65;;;2.90;99.90;;;;;;5034559;28;20112;-66
2023/01/24 03:45:21;;;;;;;11.77;4.93;;;2.90;99.90;;;;;;5034551;28;20508;-65
2023/01/24 03:47:55;;;;;;;12.40;5.60;;;2.90;99.90;;;;;;5034481;28;20042;-65
2023/01/24 03:53:08;;;;;;;8.88;4.45;;;2.90;99.90;;;;;;5034389;28;20075;-66
2023/01/24 03:55:34;;;;;;;10.15;5.07;;;2.90;99.90;;;;;;5034355;28;20485;-66
2023/01/24 03:58:00;;;;;;;10.07;5.85;;;2.90;99.90;;;;;;5016329;28;20053;-66
2023/01/24 04:00:26;;;;;;;10.43;5.13;;;2.90;99.90;;;;;;5033903;28;20041;-65
2023/01/24 04:02:53;;;;;;;11.85;5.13;;;2.90;99.90;;;;;;5034129;28;20038;-66
2023/01/24 04:05:20;;;;;;;8.85;4.28;;;2.90;99.90;;;;;;5034063;28;20033;-66
2023/01/24 04:07:46;;;;;;;12.88;5.40;;;2.90;99.90;;;;;;5015830;28;20049;-66
2023/01/24 04:10:13;;;;;;;10.38;4.90;;;2.90;99.90;;;;;;5033785;28;20049;-66
2023/01/24 04:12:39;;;;;;;12.68;5.43;;;2.90;99.90;;;;;;5015856;28;20381;-66
2023/01/24 04:15:06;;;;;;;13.55;5.57;;;2.90;99.90;;;;;;5033842;28;20524;-66
2023/01/24 04:17:31;;;;;;;8.95;4.50;;;2.90;99.90;;;;;;5033964;28;20046;-65
2023/01/24 04:19:57;;;;;;;10.50;5.22;;;2.90;99.90;;;;;;5015948;28;20487;-66
2023/01/24 04:22:23;;;;;;;10.00;5.28;;;2.90;99.90;;;;;;5033554;28;20112;-65
2023/01/24 04:24:48;;;;;;;8.27;4.82;;;2.90;99.90;;;;;;5033757;28;20515;-66
2023/01/24 04:27:14;;;;;;;8.25;5.25;;;2.90;99.90;;;;;;5033347;28;20396;-65
2023/01/24 04:29:39;;;;;;;10.40;4.90;;;2.90;99.90;;;;;;5033661;28;20064;-68
2023/01/24 04:32:05;;;;;;;9.23;4.35;;;2.90;99.90;;;;;;5015625;28;20438;-65
2023/01/24 04:34:31;;;;;;;10.82;4.63;;;2.90;99.90;;;;;;5033669;28;20029;-65
2023/01/24 04:36:56;;;;;;;8.88;4.38;;;2.90;99.90;;;;;;5033473;28;20519;-66
2023/01/24 04:39:22;;;;;;;13.32;5.10;;;2.90;99.90;;;;;;5033234;28;20064;-65
2023/01/24 04:41:48;;;;;;;14.40;4.82;;;2.90;99.90;;;;;;5033496;28;20124;-66
2023/01/24 04:44:13;;;;;;;9.65;5.32;;;2.90;99.90;;;;;;5033406;28;20044;-66
2023/01/24 04:46:39;;;;;;;10.55;4.32;;;2.80;99.90;;;;;;5015414;28;20049;-66
2023/01/24 04:49:04;;;;;;;9.88;4.85;;;2.90;99.90;;;;;;5033297;28;20473;-66
2023/01/24 04:51:30;;;;;;;9.75;4.32;;;2.90;99.90;;;;;;5033012;28;20095;-66
2023/01/24 04:53:55;;;;;;;12.80;4.78;;;2.90;99.90;;;;;;5033302;28;20041;-66
2023/01/24 04:56:21;;;;;;;9.20;5.15;;;2.90;99.90;;;;;;5015219;28;20082;-65
2023/01/24 04:58:47;;;;;;;8.43;4.53;;;2.90;99.90;;;;;;5015525;28;20049;-65
2023/01/24 05:01:12;;;;;;;13.18;5.53;;;2.90;99.90;;;;;;5015225;28;20052;-65
2023/01/24 05:03:38;;;;;;;12.05;4.22;;;2.90;99.90;;;;;;5033052;28;20041;-66
2023/01/24 05:06:04;;;;;;;9.02;4.97;;;2.90;99.90;;;;;;5015264;28;20471;-64
2023/01/24 05:08:29;;;;;;;9.05;4.50;;;2.90;99.90;;;;;;5032861;28;20041;-66
2023/01/24 05:10:55;;;;;;;9.50;4.50;;;2.90;99.90;;;;;;5033106;28;20103;-66
2023/01/24 05:13:23;;;;;;;8.38;4.55;;;2.90;99.90;;;;;;5015065;28;20396;-65
2023/01/24 05:15:50;;;;;;;10.77;4.95;;;2.90;99.90;;;;;;5015108;28;20045;-66
2023/01/24 05:18:17;;;;;;;8.65;4.90;;;2.90;99.90;;;;;;5032914;28;20045;-65
2023/01/24 05:20:43;;;;;;;9.60;4.13;;;2.80;99.90;;;;;;5032959;28;20045;-66
2023/01/24 05:23:09;;;;;;;10.93;3.97;;;2.80;99.90;;;;;;5014039;28;20455;-65
2023/01/24 05:25:34;;;;;;;7.80;3.60;;;2.90;99.90;;;;;;5032831;28;20046;-65
2023/01/24 05:28:00;;;;;;;8.52;4.25;;;2.80;99.90;;;;;;5032841;28;20389;-65
2023/01/24 05:30:26;;;;;;;9.30;4.15;;;2.90;99.90;;;;;;5032883;28;20029;-66
2023/01/24 05:32:58;;;;;;;7.72;3.97;;;2.90;99.90;;;;;;5032865;28;20492;-66
2023/01/24 05:35:24;;;;;;;6.68;3.97;;;2.80;99.90;;;;;;5032871;28;20167;-66
2023/01/24 05:37:50;;;;;;;10.10;4.28;;;2.90;99.90;;;;;;5015044;28;20564;-66
2023/01/24 05:40:16;;;;;;;11.35;3.83;;;2.90;99.90;;;;;;5014801;28;20099;-66
2023/01/24 05:42:42;;;;;;;9.20;4.47;;;2.80;99.90;;;;;;5032742;28;20061;-65
2023/01/24 05:45:09;;;;;;;10.57;4.57;;;2.80;99.90;;;;;;5014737;28;20041;-65
2023/01/24 05:47:35;;;;;;;8.13;3.55;;;2.80;99.90;;;;;;5032531;28;20045;-65
2023/01/24 05:50:04;;;;;;;7.72;4.10;;;2.80;99.90;;;;;;5032699;28;20537;-65
2023/01/24 05:52:29;;;;;;;9.73;4.30;;;2.80;99.90;;;;;;5032275;28;20037;-66
2023/01/24 05:54:55;;;;;;;7.47;3.78;;;2.80;99.90;;;;;;5032716;28;20048;-66
2023/01/24 05:57:23;;;;;;;7.28;3.70;;;2.80;99.90;;;;;;5014633;28;20045;-67
2023/01/24 05:59:49;;;;;;;7.90;3.45;;;2.80;99.90;;;;;;5032630;28;20124;-65
2023/01/24 06:02:15;;;;;;;7.03;3.50;;;2.80;99.90;;;;;;5014855;28;20144;-65
2023/01/24 06:04:40;;;;;;;7.18;4.15;;;2.80;99.90;;;;;;5014926;28;20045;-66
2023/01/24 06:07:06;;;;;;;9.40;4.03;;;2.80;99.90;;;;;;5014426;28;20536;-66
2023/01/24 06:09:31;;;;;;;6.07;3.60;;;2.80;99.90;;;;;;5032124;28;20460;-66
2023/01/24 06:11:57;;;;;;;8.10;3.55;;;2.80;99.90;;;;;;5032114;28;20052;-66
2023/01/24 06:14:23;;;;;;;7.53;4.35;;;2.80;99.90;;;;;;5014440;28;20124;-66
2023/01/24 06:16:48;;;;;;;8.80;4.25;;;2.80;99.90;;;;;;5014480;28;20045;-65
2023/01/24 06:19:14;;;;;;;7.93;3.85;;;2.80;99.90;;;;;;5032333;28;20524;-66
2023/01/24 06:21:51;;;;;;;6.78;3.47;;;2.80;99.90;;;;;;5032407;28;20042;-66
2023/01/24 06:24:25;;;;;;;7.97;3.63;;;2.80;99.90;;;;;;5032324;28;20050;-66
2023/01/24 06:26:52;;;;;;;9.52;3.88;;;2.80;99.90;;;;;;5014369;28;20041;-65
2023/01/24 06:29:19;;;;;;;7.10;3.97;;;2.80;99.90;;;;;;5014636;28;20064;-66
2023/01/24 06:32:11;;;;;;;7.38;3.38;;;2.80;99.90;;;;;;5032312;28;20034;-66
2023/01/24 06:34:49;;;;;;;6.50;3.15;;;2.80;99.90;;;;;;5034051;28;20037;-66
2023/01/24 06:37:30;;;;;;;6.90;3.85;;;2.70;99.90;;;;;;5018175;28;20517;-67
2023/01/24 06:39:56;;;;;;;7.47;3.63;;;2.80;99.90;;;;;;5035566;28;20060;-66
2023/01/24 06:42:22;;;;;;;5.20;2.92;;;2.80;99.90;;;;;;5035833;28;20477;-66
2023/01/24 06:44:49;;;;;;;8.25;4.07;;;2.70;99.90;;;;;;5035663;28;20385;-66
2023/01/24 06:47:15;;;;;;;7.60;3.63;;;2.80;99.90;;;;;;5017583;28;20485;-65
2023/01/24 06:49:41;;;;;;;8.20;3.53;;;2.70;99.90;;;;;;5035331;28;20037;-66
2023/01/24 06:52:07;;;;;;;10.07;3.28;;;2.80;99.90;;;;;;5035583;28;20042;-66
2023/01/24 06:54:34;;;;;;;6.05;3.05;;;2.70;99.90;;;;;;5035487;28;20044;-67
2023/01/24 06:57:00;;;;;;;9.98;3.83;;;2.80;99.90;;;;;;5017644;28;20041;-66
2023/01/24 06:59:26;;;;;;;8.07;3.92;;;2.70;99.90;;;;;;5017679;28;20515;-67
2023/01/24 07:01:52;;;;;;;9.68;4.13;;;2.70;99.90;;;;;;5035311;28;20076;-66
2023/01/24 07:04:17;;;;;;;7.78;3.75;;;2.70;99.90;;;;;;5035421;28;20124;-66
2023/01/24 07:06:44;;;;;;;6.70;3.60;;;2.80;99.90;;;;;;5035284;28;20042;-66
2023/01/24 07:09:10;;;;;;;10.45;4.57;;;2.80;99.90;;;;;;5034885;28;20054;-67
2023/01/24 07:11:36;;;;;;;9.00;3.78;;;2.80;99.90;;;;;;5035195;28;20045;-66
2023/01/24 07:14:02;;;;;;;8.80;3.97;;;2.70;99.90;;;;;;5035041;28;20025;-66
2023/01/24 07:16:28;;;;;;;7.80;3.60;;;3.40;99.90;;;;;;5034916;28;20484;-66
2023/01/24 07:18:53;;;;;;;10.75;3.90;;;2.70;99.90;;;;;;5034944;28;20491;-66
2023/01/24 07:21:19;;;;;;;10.00;3.92;;;2.70;99.90;;;;;;5016935;28;20447;-66
2023/01/24 07:23:47;;;;;;;11.10;4.30;;;2.70;99.90;;;;;;5016940;28;20536;-67
2023/01/24 07:26:13;;;;;;;9.48;4.50;;;2.70;99.90;;;;;;5034645;28;20133;-67
2023/01/24 07:28:40;;;;;;;9.23;3.58;;;2.70;99.90;;;;;;5034912;28;20033;-67
2023/01/24 07:31:06;;;;;;;7.70;3.90;;;2.70;99.90;;;;;;5016888;28;20090;-67
2023/01/24 07:33:32;;;;;;;6.97;3.63;;;2.70;99.90;;;;;;5034738;28;20112;-68
2023/01/24 07:35:57;;;;;;;10.52;4.15;;;2.70;99.90;;;;;;5016655;28;20049;-67
2023/01/24 07:38:23;;;;;;;8.48;4.07;;;2.70;99.90;;;;;;5034381;28;20033;-67
2023/01/24 07:40:49;;;;;;;7.45;3.85;;;2.70;99.90;;;;;;5034607;28;20045;-67
2023/01/24 07:43:14;;;;;;;8.68;4.60;;;3.00;99.90;;;;;;5034642;28;20477;-67
2023/01/24 07:45:40;;;;;;;9.77;3.90;;;2.70;99.90;;;;;;5015776;28;20033;-67
2023/01/24 07:48:07;;;;;;;11.55;4.88;;;2.70;99.90;;;;;;5034385;28;20041;-67
2023/01/24 07:50:33;;;;;;;8.40;4.57;;;2.60;99.90;;;;;;5034401;28;20033;-67
2023/01/24 07:53:00;;;;;;;11.13;4.25;;;2.60;99.90;;;;;;5034409;28;20033;-66
2023/01/24 07:55:26;;;;;;;7.88;3.95;;;2.60;99.90;;;;;;5034379;28;20461;-67
2023/01/24 07:57:56;;;;;;;7.30;4.13;;;2.60;99.90;;;;;;5016446;28;20041;-66
2023/01/24 08:00:22;;;;;;;6.73;3.83;;;2.60;99.90;;;;;;5016542;28;20076;-67
2023/01/24 08:02:49;;;;;;;6.32;3.30;;;2.60;99.90;;;;;;5034221;28;20315;-66
2023/01/24 08:05:14;;;;;;;8.68;4.10;;;2.60;99.90;;;;;;5016522;28;20044;-66
2023/01/24 08:07:40;;;;;;;8.40;4.10;;;2.60;99.90;;;;;;5033824;28;20053;-67
2023/01/24 08:10:06;;;;;;;7.93;3.85;;;2.60;99.90;;;;;;5033474;28;20050;-65
2023/01/24 08:12:32;;;;;;;8.10;3.78;;;2.60;99.90;;;;;;5034071;28;20048;-66
2023/01/24 08:14:57;;;;;;;8.55;3.58;;;2.60;99.90;;;;;;5034001;28;20034;-67
2023/01/24 08:17:23;;;;;;;7.60;4.13;;;2.60;99.90;;;;;;5034004;28;20098;-66
2023/01/24 08:19:49;;;;;;;9.52;4.63;;;2.60;99.90;;;;;;5033925;28;20045;-66
2023/01/24 08:22:14;;;;;;;7.22;3.95;;;2.60;99.90;;;;;;5033844;28;20033;-67
2023/01/24 08:24:40;;;;;;;7.78;3.63;;;2.70;99.90;;;;;;5016072;28;20123;-67
2023/01/24 08:27:05;;;;;;;9.32;4.30;;;2.70;99.90;;;;;;5033710;28;20034;-67
2023/01/24 08:29:31;;;;;;;7.32;3.67;;;2.70;99.90;;;;;;5033684;28;20113;-66
2023/01/24 08:31:57;;;;;;;12.27;5.00;;;2.70;99.90;;;;;;5015983;28;20543;-67
2023/01/24 08:34:23;;;;;;;9.18;4.35;;;2.70;99.90;;;;;;5033628;28;20038;-67
2023/01/24 08:36:49;;;;;;;7.97;3.80;;;2.70;99.90;;;;;;5033589;28;20041;-66
2023/01/24 08:39:14;;;;;;;9.23;4.45;;;2.70;99.90;;;;;;5015611;28;20092;-67
2023/01/24 08:41:43;;;;;;;7.07;3.53;;;2.70;99.90;;;;;;5033524;28;20064;-67
2023/01/24 08:44:08;;;;;;;7.68;4.28;;;3.40;99.90;;;;;;5033470;28;20045;-67
2023/01/24 08:46:34;;;;;;;8.07;4.00;;;2.80;99.90;;;;;;5033098;28;20404;-67
2023/01/24 08:49:02;;;;;;;9.15;3.97;;;2.70;99.90;;;;;;5033431;28;20033;-66
2023/01/24 08:51:27;;;;;;;11.35;4.43;;;2.80;99.90;;;;;;5033125;28;20045;-67
2023/01/24 08:53:53;;;;;;;6.32;3.83;;;2.80;99.90;;;;;;5033373;28;20037;-67
2023/01/24 08:56:19;;;;;;;7.90;4.07;;;2.80;99.90;;;;;;5015260;28;20076;-67
2023/01/24 08:58:44;;;;;;;7.45;3.72;;;2.80;99.90;;;;;;5032875;28;20049;-66
2023/01/24 09:01:10;;;;;;;7.75;3.38;;;2.80;99.90;;;;;;5015477;28;20041;-67
2023/01/24 09:03:37;;;;;;;9.40;4.38;;;2.80;99.90;;;;;;5015451;28;20167;-67
2023/01/24 09:06:04;;;;;;;7.65;3.60;;;2.80;99.90;;;;;;5015222;28;20499;-67
2023/01/24 09:08:30;;;;;;;8.38;3.70;;;2.90;99.90;;;;;;5032728;28;20053;-66
2023/01/24 09:11:00;;;;;;;9.05;4.20;;;2.90;99.90;;;;;;5033115;28;20033;-66
2023/01/24 09:13:25;;;;;;;6.85;4.00;;;2.80;99.90;;;;;;5033149;28;20033;-67
2023/01/24 09:15:51;;;;;;;7.68;4.22;;;2.90;99.90;;;;;;5015064;28;20045;-66
2023/01/24 09:18:17;;;;;;;8.82;4.47;;;3.50;99.90;;;;;;5032765;28;20071;-67
2023/01/24 09:20:43;;;;;;;10.05;4.32;;;2.90;99.90;;;;;;5033008;28;20033;-67
2023/01/24 09:23:11;;;;;;;9.18;4.13;;;2.90;99.90;;;;;;5032911;28;20037;-67
2023/01/24 09:25:38;;;;;;;8.73;4.25;;;2.90;99.90;;;;;;5032883;28;20041;-66
2023/01/24 09:28:03;;;;;;;8.48;3.92;;;2.90;99.90;;;;;;5032692;28;20053;-66
2023/01/24 09:30:29;;;;;;;7.85;3.30;;;2.90;99.90;;;;;;5032933;28;20037;-69
2023/01/24 09:32:54;;;;;;;8.43;3.70;;;2.90;99.90;;;;;;5032816;28;20449;-67
2023/01/24 09:35:20;;;;;;;7.70;3.90;;;3.00;99.90;;;;;;5032884;28;20076;-67
2023/01/24 09:37:46;;;;;;;9.45;3.97;;;2.90;99.90;;;;;;5014803;28;20071;-67
2023/01/24 09:40:19;;;;;;;8.18;3.97;;;2.90;99.90;;;;;;5032490;28;20496;-67
2023/01/24 09:43:06;;;;;;;8.15;3.92;;;2.90;99.90;;;;;;5032584;28;20045;-67
2023/01/24 09:46:06;;;;;;;6.97;4.15;;;2.90;99.90;;;;;;5032716;28;20033;-67
2023/01/24 09:48:34;;;;;;;9.52;4.60;;;2.90;99.90;;;;;;5014780;28;20045;-67
2023/01/24 09:51:06;;;;;;;9.68;3.97;;;3.00;99.90;;;;;;5032739;28;20076;-67
2023/01/24 09:53:43;;;;;;;9.77;4.55;;;3.00;99.90;;;;;;5032658;28;20113;-67
2023/01/24 09:56:26;;;;;;;7.07;4.20;;;3.00;99.90;;;;;;5014615;28;20087;-67
2023/01/24 09:59:14;;;;;;;14.00;5.03;;;3.00;99.90;;;;;;5014601;28;20053;-67
2023/01/24 10:01:40;;;;;;;9.90;4.55;;;3.00;99.90;;;;;;5032585;28;20034;-66
2023/01/24 10:04:24;;;;;;;9.75;4.57;;;3.00;99.90;;;;;;5032352;28;20443;-66
2023/01/24 10:07:18;;;;;;;8.25;4.32;;;3.00;99.90;;;;;;5032387;28;20053;-66
2023/01/24 10:09:55;;;;;;;9.27;4.35;;;3.00;99.90;;;;;;5034177;28;20052;-66
2023/01/24 10:12:34;;;;;;;8.13;4.75;;;3.00;99.90;;;;;;5036313;28;20458;-67
2023/01/24 10:15:29;;;;;;;9.70;4.28;;;3.00;99.90;;;;;;5036225;28;20038;-67
2023/01/24 10:18:49;;;;;;;8.88;4.50;;;3.00;99.90;;;;;;5036203;28;20451;-67
2023/01/24 10:21:57;;;;;;;11.48;4.57;;;3.00;99.90;;;;;;4974929;28;20039;-67
2023/01/24 10:24:28;;;;;;;8.48;4.93;;;2.90;99.90;;;;;;5036135;28;20404;-67
2023/01/24 10:26:54;;;;;;;10.43;4.65;;;3.00;99.90;;;;;;5036039;28;20046;-67
2023/01/24 10:29:36;;;;;;;8.48;4.45;;;3.10;99.90;;;;;;5018010;28;20045;-67
2023/01/24 10:32:13;;;;;;;12.18;4.85;;;3.10;99.90;;;;;;5035888;28;20038;-67
2023/01/24 10:34:43;;;;;;;11.95;5.07;;;3.10;99.90;;;;;;5035546;28;20064;-67
2023/01/24 10:37:09;;;;;;;8.45;4.75;;;3.10;99.90;;;;;;5035816;28;20053;-67
2023/01/24 10:39:38;;;;;;;10.65;4.63;;;3.20;99.90;;;;;;5035850;28;20037;-66
2023/01/24 10:42:25;;;;;;;7.55;3.67;;;3.20;99.90;;;;;;5017829;28;20038;-67
2023/01/24 10:44:54;;;;;;;7.85;4.35;;;3.20;99.90;;;;;;5017819;28;20041;-67
2023/01/24 10:47:47;;;;;;;10.00;4.47;;;3.20;99.90;;;;;;5018344;28;20053;-67
2023/01/24 10:50:17;;;;;;;11.18;3.78;;;3.20;99.90;;;;;;5035637;28;20037;-67
2023/01/24 10:52:46;;;;;;;7.72;3.78;;;3.20;99.90;;;;;;5017570;28;20043;-66
2023/01/24 10:55:37;;;;;;;10.73;4.57;;;3.20;99.90;;;;;;5035577;28;20396;-67
2023/01/24 10:58:25;;;;;;;7.78;4.38;;;3.20;99.90;;;;;;5011156;28;20096;-65
2023/01/24 11:00:59;;;;;;;9.40;4.38;;;3.30;99.90;;;;;;5005360;28;20045;-66
2023/01/24 11:03:35;;;;;;;8.07;3.85;;;3.20;99.90;;;;;;5035111;28;20037;-65
2023/01/24 11:06:02;;;;;;;11.07;5.28;;;3.20;99.90;;;;;;5035234;28;20041;-65
2023/01/24 11:08:35;;;;;;;8.20;4.03;;;3.20;99.90;;;;;;5034796;28;20053;-65
2023/01/24 11:11:02;;;;;;;9.93;4.63;;;3.20;99.90;;;;;;5034149;28;20039;-65
2023/01/24 11:13:40;;;;;;;8.77;4.32;;;3.30;99.90;;;;;;5034171;28;20507;-65
2023/01/24 11:16:19;;;;;;;6.68;3.60;;;3.40;99.90;;;;;;5015976;28;20045;-65
2023/01/24 11:18:51;;;;;;;8.70;4.03;;;3.30;99.90;;;;;;5033768;28;20068;-66
2023/01/24 11:21:19;;;;;;;9.63;4.50;;;3.30;99.90;;;;;;5033935;28;20079;-66
2023/01/24 11:23:45;;;;;;;7.13;3.90;;;3.30;99.90;;;;;;5033828;28;20038;-65
2023/01/24 11:26:23;;;;;;;8.45;4.70;;;3.30;99.90;;;;;;5033567;28;20048;-65
2023/01/24 11:29:01;;;;;;;7.97;4.20;;;3.30;99.90;;;;;;5033530;28;20053;-66
2023/01/24 11:31:36;;;;;;;6.57;3.78;;;3.30;99.90;;;;;;5033562;28;20175;-66
2023/01/24 11:34:10;;;;;;;6.45;4.10;;;3.20;99.90;;;;;;5015805;28;20446;-66
2023/01/24 11:36:52;;;;;;;11.48;4.20;;;3.30;99.90;;;;;;5015765;28;20079;-66
2023/01/24 11:39:47;;;;;;;9.88;4.53;;;3.20;99.90;;;;;;5015771;28;20075;-66
2023/01/24 11:42:35;;;;;;;11.50;4.93;;;3.20;99.90;;;;;;5033684;28;20550;-66
2023/01/24 11:45:25;;;;;;;10.32;4.38;;;3.20;99.90;;;;;;5033383;28;20564;-64
2023/01/24 11:48:08;;;;;;;9.85;4.47;;;3.20;99.90;;;;;;5033527;28;20063;-65
2023/01/24 11:50:37;;;;;;;7.03;4.00;;;3.20;99.90;;;;;;5033496;28;20402;-66
2023/01/24 11:53:40;;;;;;;7.72;4.53;;;3.20;99.90;;;;;;5033499;28;20072;-64
2023/01/24 11:56:43;;;;;;;9.77;5.05;;;3.30;99.90;;;;;;5033119;28;20128;-64
2023/01/24 11:59:30;;;;;;;8.68;4.05;;;3.30;99.90;;;;;;5015659;28;20045;-64
2023/01/24 12:02:11;;;;;;;7.93;4.30;;;3.30;99.90;;;;;;5033037;28;20049;-64
2023/01/24 12:05:06;;;;;;;8.57;4.07;;;3.30;99.90;;;;;;5033332;28;20037;-65
2023/01/24 12:07:52;;;;;;;6.10;4.00;;;3.30;99.90;;;;;;5033189;28;20448;-64
2023/01/24 12:10:31;;;;;;;8.43;4.05;;;3.30;99.90;;;;;;4997309;28;1061185;-65
2023/01/24 12:13:14;;;;;;;7.45;4.18;;;3.30;99.90;;;;;;5016231;28;20112;-66
2023/01/24 12:16:14;;;;;;;9.55;3.25;;;3.30;99.90;;;;;;5033708;28;20049;-65
2023/01/24 12:19:06;;;;;;;7.80;4.13;;;3.40;99.90;;;;;;5033919;28;20374;-65
2023/01/24 12:21:32;;;;;;;10.07;4.28;;;3.40;99.90;;;;;;5033816;28;20044;-68
2023/01/24 12:24:08;;;;;;;7.03;3.72;;;3.40;99.90;;;;;;5016181;28;20037;-68
2023/01/24 12:26:44;;;;;;;7.63;3.97;;;3.40;99.90;;;;;;5033421;28;20053;-68
2023/01/24 12:29:22;;;;;;;8.60;3.95;;;3.50;99.90;;;;;;5033327;28;20038;-68
2023/01/24 12:31:54;;;;;;;9.43;4.18;;;3.50;99.90;;;;;;5033148;28;20029;-65
2023/01/24 12:34:44;;;;;;;9.98;4.32;;;3.50;99.90;;;;;;5033667;28;20041;-65
2023/01/24 12:37:39;;;;;;;9.18;4.38;;;3.50;99.90;;;;;;5015568;28;20049;-65
2023/01/24 12:40:13;;;;;;;11.40;4.30;;;3.50;99.90;;;;;;5033244;28;20479;-65
2023/01/24 12:42:42;;;;;;;8.40;4.60;;;3.40;99.90;;;;;;5033518;28;20400;-66
2023/01/24 12:45:18;;;;;;;12.40;4.95;;;3.40;99.90;;;;;;5033477;28;20053;-65
2023/01/24 12:47:48;;;;;;;8.05;4.60;;;3.50;99.90;;;;;;5015484;28;20056;-66
2023/01/24 12:50:36;;;;;;;7.65;4.53;;;3.40;99.90;;;;;;5015754;28;20038;-68
2023/01/24 12:53:12;;;;;;;15.48;5.30;;;3.40;99.90;;;;;;5015637;28;20045;-65
2023/01/24 12:55:53;;;;;;;7.28;4.15;;;3.40;99.90;;;;;;5015387;28;20041;-66
2023/01/24 12:58:28;;;;;;;7.50;3.58;;;3.40;99.90;;;;;;5033317;28;20485;-65
2023/01/24 13:01:02;;;;;;;13.70;4.60;;;3.30;99.90;;;;;;5033250;28;20396;-65
2023/01/24 13:03:34;;;;;;;14.27;5.60;;;3.30;99.90;;;;;;5033253;28;20045;-66
2023/01/24 13:06:02;;;;;;;;;;;3.30;99.90;;;;;;5015839;28;20041;-65
2023/01/24 13:08:35;;;;;;;7.50;3.70;;;3.30;99.90;;;;;;5032983;28;19983;-66
2023/01/24 13:11:19;;;;;;;7.22;4.38;;;3.30;99.90;;;;;;5015352;28;20064;-66
2023/01/24 13:14:00;;;;;;;7.90;3.97;;;3.30;99.90;;;;;;5033073;28;20404;-65
2023/01/24 13:17:03;;;;;;;7.53;4.28;;;3.30;99.90;;;;;;5032820;28;20053;-65
2023/01/24 13:20:00;;;;;;;11.43;4.28;;;3.30;99.90;;;;;;5032982;28;20485;-65
2023/01/24 13:22:54;;;;;;;10.38;4.47;;;3.30;99.90;;;;;;5032919;28;20034;-65
2023/01/24 13:26:03;;;;;;;9.77;4.50;;;3.30;99.90;;;;;;5032799;28;20496;-66
2023/01/24 13:28:29;;;;;;;7.53;4.32;;;3.30;99.90;;;;;;5032068;28;20052;-66
2023/01/24 13:31:15;;;;;;;7.72;4.25;;;3.30;99.90;;;;;;5014472;28;20116;-65
2023/01/24 13:34:13;;;;;;;10.85;4.32;;;3.30;99.90;;;;;;5032847;28;20037;-64
2023/01/24 13:36:39;;;;;;;11.95;4.40;;;3.20;99.90;;;;;;5031709;28;20408;-65
2023/01/24 13:39:05;;;;;;;9.02;4.32;;;3.20;99.90;;;;;;5015199;28;20044;-66
2023/01/24 13:41:34;;;;;;;9.45;3.95;;;3.20;99.90;;;;;;5014779;28;20214;-66
2023/01/24 13:44:02;;;;;;;9.20;4.45;;;3.20;99.90;;;;;;5033394;28;20041;-66
2023/01/24 13:46:44;;;;;;;7.00;3.72;;;3.20;99.90;;;;;;5018796;28;20123;-66
2023/01/24 13:49:37;;;;;;;12.50;4.82;;;3.20;99.90;;;;;;5036827;28;20037;-66
2023/01/24 13:52:31;;;;;;;8.55;3.80;;;3.10;99.90;;;;;;5018777;28;20073;-66